sensor_id;sensor_type;location;lat;lon;timestamp;pressure;altitude;pressure_sealevel;temperature;humidity
18918;BME280;9591;52.742;13.650;2023-01-29T00:02:24;102225.06;;;-0.68;100.00
18918;BME280;9591;52.742;13.650;2023-01-29T00:05:10;102222.97;;;-0.54;100.00
18918;BME280;9591;52.742;13.650;2023-01-29T00:08:13;102220.94;;;-0.62;100.00
18918;BME280;9591;52.742;13.650;2023-01-29T00:11:01;102221.00;;;-0.61;100.00
18918;BME280;9591;52.742;13.650;2023-01-29T00:13:47;102213.50;;;-0.52;100.00
18918;BME280;9591;52.742;13.650;2023-01-29T00:16:35;102222.31;;;-0.48;100.00
18918;BME280;9591;52.742;13.650;2023-01-29T00:19:22;102208.25;;;-0.53;100.00
18918;BME280;9591;52.742;13.650;2023-01-29T00:22:09;102214.63;;;-0.69;100.00
18918;BME280;9591;52.742;13.650;2023-01-29T00:24:57;102218.00;;;-0.72;100.00
18918;BME280;9591;52.742;13.650;2023-01-29T00:27:44;102214.00;;;-0.62;100.00
18918;BME280;9591;52.742;13.650;2023-01-29T00:30:30;102208.16;;;-0.56;100.00
18918;BME280;9591;52.742;13.650;2023-01-29T00:33:17;102192.06;;;-0.69;100.00
18918;BME280;9591;52.742;13.650;2023-01-29T00:36:05;102193.03;;;-0.67;100.00
18918;BME280;9591;52.742;13.650;2023-01-29T00:38:57;102191.91;;;-0.73;100.00
18918;BME280;9591;52.742;13.650;2023-01-29T00:41:45;102181.16;;;-0.58;100.00
18918;BME280;9591;52.742;13.650;2023-01-29T00:44:49;102178.56;;;-0.58;100.00
18918;BME280;9591;52.742;13.650;2023-01-29T00:47:44;102178.50;;;-0.60;100.00
18918;BME280;9591;52.742;13.650;2023-01-29T00:50:31;102184.56;;;-0.61;100.00
18918;BME280;9591;52.742;13.650;2023-01-29T00:53:18;102185.00;;;-0.73;100.00
18918;BME280;9591;52.742;13.650;2023-01-29T00:56:06;102193.69;;;-0.72;100.00
18918;BME280;9591;52.742;13.650;2023-01-29T00:58:55;102195.28;;;-0.76;100.00
18918;BME280;9591;52.742;13.650;2023-01-29T01:01:41;102202.31;;;-0.73;100.00
18918;BME280;9591;52.742;13.650;2023-01-29T01:04:46;102204.31;;;-0.66;100.00
18918;BME280;9591;52.742;13.650;2023-01-29T01:07:32;102193.56;;;-0.75;100.00
18918;BME280;9591;52.742;13.650;2023-01-29T01:10:22;102209.22;;;-0.74;100.00
18918;BME280;9591;52.742;13.650;2023-01-29T01:13:09;102212.13;;;-0.66;100.00
18918;BME280;9591;52.742;13.650;2023-01-29T01:16:00;102196.97;;;-0.54;100.00
18918;BME280;9591;52.742;13.650;2023-01-29T01:18:48;102201.94;;;-0.60;100.00
18918;BME280;9591;52.742;13.650;2023-01-29T01:21:37;102199.28;;;-0.61;100.00
18918;BME280;9591;52.742;13.650;2023-01-29T01:24:24;102202.78;;;-0.61;100.00
18918;BME280;9591;52.742;13.650;2023-01-29T01:27:11;102199.78;;;-0.48;100.00
18918;BME280;9591;52.742;13.650;2023-01-29T01:29:57;102192.13;;;-0.43;100.00
18918;BME280;9591;52.742;13.650;2023-01-29T01:32:45;102192.84;;;-0.47;100.00
18918;BME280;9591;52.742;13.650;2023-01-29T01:35:32;102189.44;;;-0.46;100.00
18918;BME280;9591;52.742;13.650;2023-01-29T01:38:19;102192.41;;;-0.36;100.00
18918;BME280;9591;52.742;13.650;2023-01-29T01:41:05;102200.13;;;-0.39;100.00
18918;BME280;9591;52.742;13.650;2023-01-29T01:43:54;102194.13;;;-0.36;100.00
18918;BME280;9591;52.742;13.650;2023-01-29T01:46:41;102191.25;;;-0.44;100.00
18918;BME280;9591;52.742;13.650;2023-01-29T01:49:29;102183.56;;;-0.41;100.00
18918;BME280;9591;52.742;13.650;2023-01-29T01:52:16;102189.81;;;-0.36;100.00
18918;BME280;9591;52.742;13.650;2023-01-29T01:55:06;102191.91;;;-0.49;100.00
18918;BME280;9591;52.742;13.650;2023-01-29T01:57:58;102184.00;;;-0.52;100.00
18918;BME280;9591;52.742;13.650;2023-01-29T02:00:48;102170.03;;;-0.54;100.00
18918;BME280;9591;52.742;13.650;2023-01-29T02:03:39;102169.91;;;-0.34;100.00
18918;BME280;9591;52.742;13.650;2023-01-29T02:06:47;102166.81;;;-0.47;100.00
18918;BME280;9591;52.742;13.650;2023-01-29T02:09:55;102154.13;;;-0.38;100.00
18918;BME280;9591;52.742;13.650;2023-01-29T02:12:46;102150.06;;;-0.30;100.00
18918;BME280;9591;52.742;13.650;2023-01-29T02:15:33;102154.81;;;-0.18;100.00
18918;BME280;9591;52.742;13.650;2023-01-29T02:18:20;102160.09;;;-0.17;100.00
18918;BME280;9591;52.742;13.650;2023-01-29T02:21:18;102143.81;;;-0.35;100.00
18918;BME280;9591;52.742;13.650;2023-01-29T02:27:55;102143.22;;;-0.28;100.00
18918;BME280;9591;52.742;13.650;2023-01-29T02:30:49;102140.00;;;-0.45;100.00
18918;BME280;9591;52.742;13.650;2023-01-29T02:33:47;102144.22;;;-0.48;100.00
18918;BME280;9591;52.742;13.650;2023-01-29T02:36:39;102151.75;;;-0.32;100.00
18918;BME280;9591;52.742;13.650;2023-01-29T02:39:33;102157.22;;;-0.24;100.00
18918;BME280;9591;52.742;13.650;2023-01-29T02:42:25;102150.28;;;-0.24;100.00
18918;BME280;9591;52.742;13.650;2023-01-29T02:45:18;102153.84;;;-0.22;100.00
18918;BME280;9591;52.742;13.650;2023-01-29T02:48:17;102144.00;;;-0.30;100.00
18918;BME280;9591;52.742;13.650;2023-01-29T02:51:09;102133.84;;;-0.23;100.00
18918;BME280;9591;52.742;13.650;2023-01-29T02:54:03;102075.78;;;-0.46;100.00
18918;BME280;9591;52.742;13.650;2023-01-29T02:56:55;102143.72;;;-0.13;100.00
18918;BME280;9591;52.742;13.650;2023-01-29T02:59:48;102139.81;;;-0.25;100.00
18918;BME280;9591;52.742;13.650;2023-01-29T03:02:43;102135.03;;;-0.13;100.00
18918;BME280;9591;52.742;13.650;2023-01-29T03:05:36;102135.72;;;-0.19;100.00
18918;BME280;9591;52.742;13.650;2023-01-29T03:08:30;102131.28;;;-0.21;100.00
18918;BME280;9591;52.742;13.650;2023-01-29T03:11:32;102124.56;;;-0.15;100.00
18918;BME280;9591;52.742;13.650;2023-01-29T03:14:24;102124.66;;;-0.12;100.00
18918;BME280;9591;52.742;13.650;2023-01-29T03:17:39;102123.88;;;-0.09;100.00
18918;BME280;9591;52.742;13.650;2023-01-29T03:20:31;102128.25;;;-0.08;100.00
18918;BME280;9591;52.742;13.650;2023-01-29T03:23:22;102121.97;;;-0.15;100.00
18918;BME280;9591;52.742;13.650;2023-01-29T03:26:12;102112.56;;;-0.10;100.00
18918;BME280;9591;52.742;13.650;2023-01-29T03:29:18;102099.88;;;-0.26;100.00
18918;BME280;9591;52.742;13.650;2023-01-29T03:32:24;102088.41;;;-0.06;100.00
18918;BME280;9591;52.742;13.650;2023-01-29T03:35:20;102079.66;;;-0.08;100.00
18918;BME280;9591;52.742;13.650;2023-01-29T03:38:18;102067.56;;;-0.06;100.00
18918;BME280;9591;52.742;13.650;2023-01-29T03:41:09;102069.19;;;-0.09;100.00
18918;BME280;9591;52.742;13.650;2023-01-29T03:44:07;102064.03;;;-0.08;100.00
18918;BME280;9591;52.742;13.650;2023-01-29T03:46:59;102055.38;;;-0.07;100.00
18918;BME280;9591;52.742;13.650;2023-01-29T03:49:56;102060.59;;;-0.07;100.00
18918;BME280;9591;52.742;13.650;2023-01-29T03:52:50;102060.69;;;-0.04;100.00
18918;BME280;9591;52.742;13.650;2023-01-29T03:55:45;102053.06;;;-0.24;100.00
18918;BME280;9591;52.742;13.650;2023-01-29T03:58:42;102047.25;;;-0.16;100.00
18918;BME280;9591;52.742;13.650;2023-01-29T04:01:40;102040.34;;;-0.15;100.00
18918;BME280;9591;52.742;13.650;2023-01-29T04:04:30;102035.13;;;-0.15;100.00
18918;BME280;9591;52.742;13.650;2023-01-29T04:07:20;102032.13;;;-0.01;100.00
18918;BME280;9591;52.742;13.650;2023-01-29T04:10:22;102032.13;;;-0.01;100.00
18918;BME280;9591;52.742;13.650;2023-01-29T04:13:11;102023.22;;;-0.07;100.00
18918;BME280;9591;52.742;13.650;2023-01-29T04:16:03;102018.72;;;-0.13;100.00
18918;BME280;9591;52.742;13.650;2023-01-29T04:19:07;102017.13;;;-0.08;100.00
18918;BME280;9591;52.742;13.650;2023-01-29T04:22:02;102013.78;;;-0.04;100.00
18918;BME280;9591;52.742;13.650;2023-01-29T04:24:50;102012.03;;;-0.05;100.00
18918;BME280;9591;52.742;13.650;2023-01-29T04:27:42;102017.38;;;0.02;100.00
18918;BME280;9591;52.742;13.650;2023-01-29T04:30:38;102012.22;;;0.03;100.00
18918;BME280;9591;52.742;13.650;2023-01-29T04:33:31;102010.34;;;-0.03;100.00
18918;BME280;9591;52.742;13.650;2023-01-29T04:36:28;102015.59;;;-0.01;100.00
18918;BME280;9591;52.742;13.650;2023-01-29T04:39:18;102019.84;;;-0.05;100.00
18918;BME280;9591;52.742;13.650;2023-01-29T04:42:13;102018.16;;;-0.03;100.00
18918;BME280;9591;52.742;13.650;2023-01-29T04:45:14;102014.69;;;-0.03;100.00
18918;BME280;9591;52.742;13.650;2023-01-29T04:48:10;102012.03;;;-0.05;100.00
18918;BME280;9591;52.742;13.650;2023-01-29T04:51:08;102028.19;;;-0.15;100.00
18918;BME280;9591;52.742;13.650;2023-01-29T04:54:01;102025.22;;;0.02;100.00
18918;BME280;9591;52.742;13.650;2023-01-29T04:56:55;102026.75;;;-0.05;100.00
18918;BME280;9591;52.742;13.650;2023-01-29T04:59:47;102029.69;;;0.06;100.00
18918;BME280;9591;52.742;13.650;2023-01-29T05:02:38;102036.59;;;0.05;100.00
18918;BME280;9591;52.742;13.650;2023-01-29T05:05:25;102034.88;;;0.06;100.00
18918;BME280;9591;52.742;13.650;2023-01-29T05:08:16;102033.31;;;0.11;100.00
18918;BME280;9591;52.742;13.650;2023-01-29T05:11:04;102023.16;;;0.20;100.00
18918;BME280;9591;52.742;13.650;2023-01-29T05:13:52;102028.09;;;0.11;100.00
18918;BME280;9591;52.742;13.650;2023-01-29T05:16:42;102031.63;;;0.13;100.00
18918;BME280;9591;52.742;13.650;2023-01-29T05:19:30;102020.31;;;0.12;100.00
18918;BME280;9591;52.742;13.650;2023-01-29T05:22:17;102030.34;;;-0.02;100.00
18918;BME280;9591;52.742;13.650;2023-01-29T05:25:19;102028.69;;;0.02;100.00
18918;BME280;9591;52.742;13.650;2023-01-29T05:28:08;102026.31;;;0.10;100.00
18918;BME280;9591;52.742;13.650;2023-01-29T05:31:00;102021.34;;;0.17;100.00
18918;BME280;9591;52.742;13.650;2023-01-29T05:33:47;102013.72;;;0.23;100.00
18918;BME280;9591;52.742;13.650;2023-01-29T05:36:36;102017.25;;;0.25;100.00
18918;BME280;9591;52.742;13.650;2023-01-29T05:39:23;102016.75;;;0.37;100.00
18918;BME280;9591;52.742;13.650;2023-01-29T05:42:09;102025.22;;;0.30;100.00
18918;BME280;9591;52.742;13.650;2023-01-29T05:44:56;102026.16;;;0.32;100.00
18918;BME280;9591;52.742;13.650;2023-01-29T05:47:43;102019.13;;;0.29;100.00
18918;BME280;9591;52.742;13.650;2023-01-29T05:50:30;102032.84;;;0.24;100.00
18918;BME280;9591;52.742;13.650;2023-01-29T05:53:19;102030.47;;;0.31;100.00
18918;BME280;9591;52.742;13.650;2023-01-29T05:56:06;102035.38;;;0.21;100.00
18918;BME280;9591;52.742;13.650;2023-01-29T05:58:53;102034.16;;;0.38;100.00
18918;BME280;9591;52.742;13.650;2023-01-29T06:01:40;102041.97;;;0.10;100.00
18918;BME280;9591;52.742;13.650;2023-01-29T06:04:27;102000.38;;;0.13;100.00
18918;BME280;9591;52.742;13.650;2023-01-29T06:07:14;102041.66;;;0.27;100.00
18918;BME280;9591;52.742;13.650;2023-01-29T06:10:02;102037.72;;;0.13;100.00
18918;BME280;9591;52.742;13.650;2023-01-29T06:12:49;102039.72;;;0.22;100.00
18918;BME280;9591;52.742;13.650;2023-01-29T06:15:38;102031.31;;;0.30;100.00
18918;BME280;9591;52.742;13.650;2023-01-29T06:18:24;102042.94;;;0.42;100.00
18918;BME280;9591;52.742;13.650;2023-01-29T06:21:12;102026.19;;;0.33;100.00
18918;BME280;9591;52.742;13.650;2023-01-29T06:23:59;102014.75;;;0.28;100.00
18918;BME280;9591;52.742;13.650;2023-01-29T06:26:47;102022.84;;;0.38;100.00
18918;BME280;9591;52.742;13.650;2023-01-29T06:29:34;102022.38;;;0.22;100.00
18918;BME280;9591;52.742;13.650;2023-01-29T06:32:21;102021.97;;;0.37;100.00
18918;BME280;9591;52.742;13.650;2023-01-29T06:35:08;101973.34;;;0.09;100.00
18918;BME280;9591;52.742;13.650;2023-01-29T06:37:55;102033.09;;;0.31;100.00
18918;BME280;9591;52.742;13.650;2023-01-29T06:40:41;102016.66;;;0.34;100.00
18918;BME280;9591;52.742;13.650;2023-01-29T06:43:30;102022.03;;;0.40;100.00
18918;BME280;9591;52.742;13.650;2023-01-29T06:46:16;102037.69;;;0.40;100.00
18918;BME280;9591;52.742;13.650;2023-01-29T06:49:03;102038.72;;;0.45;100.00
18918;BME280;9591;52.742;13.650;2023-01-29T06:51:50;102039.22;;;0.33;100.00
18918;BME280;9591;52.742;13.650;2023-01-29T06:54:37;102025.13;;;0.27;100.00
18918;BME280;9591;52.742;13.650;2023-01-29T06:57:24;102032.19;;;0.31;100.00
18918;BME280;9591;52.742;13.650;2023-01-29T07:00:13;102028.28;;;0.45;100.00
18918;BME280;9591;52.742;13.650;2023-01-29T07:03:01;102036.84;;;0.41;100.00
18918;BME280;9591;52.742;13.650;2023-01-29T07:05:51;102030.94;;;0.47;100.00
18918;BME280;9591;52.742;13.650;2023-01-29T07:08:38;102031.53;;;0.38;100.00
18918;BME280;9591;52.742;13.650;2023-01-29T07:11:25;102026.28;;;0.37;100.00
18918;BME280;9591;52.742;13.650;2023-01-29T07:14:12;102022.00;;;0.39;100.00
18918;BME280;9591;52.742;13.650;2023-01-29T07:17:00;102038.00;;;0.51;100.00
18918;BME280;9591;52.742;13.650;2023-01-29T07:19:47;102039.81;;;0.53;100.00
18918;BME280;9591;52.742;13.650;2023-01-29T07:22:34;102020.94;;;0.32;100.00
18918;BME280;9591;52.742;13.650;2023-01-29T07:25:20;102028.66;;;0.29;100.00
18918;BME280;9591;52.742;13.650;2023-01-29T07:28:07;102031.63;;;0.41;100.00
18918;BME280;9591;52.742;13.650;2023-01-29T07:30:55;102023.91;;;0.44;100.00
18918;BME280;9591;52.742;13.650;2023-01-29T07:33:44;102027.84;;;0.60;100.00
18918;BME280;9591;52.742;13.650;2023-01-29T07:36:31;102026.75;;;0.52;100.00
18918;BME280;9591;52.742;13.650;2023-01-29T07:39:17;101997.47;;;0.32;100.00
18918;BME280;9591;52.742;13.650;2023-01-29T07:42:04;102003.28;;;0.52;100.00
18918;BME280;9591;52.742;13.650;2023-01-29T07:44:51;101993.47;;;0.43;100.00
18918;BME280;9591;52.742;13.650;2023-01-29T07:47:38;101985.25;;;0.59;100.00
18918;BME280;9591;52.742;13.650;2023-01-29T07:50:26;101882.06;;;0.06;100.00
18918;BME280;9591;52.742;13.650;2023-01-29T07:53:13;101999.25;;;0.63;100.00
18918;BME280;9591;52.742;13.650;2023-01-29T07:56:01;102006.09;;;0.59;100.00
18918;BME280;9591;52.742;13.650;2023-01-29T07:58:48;101992.34;;;0.65;100.00
18918;BME280;9591;52.742;13.650;2023-01-29T08:01:35;101986.44;;;0.71;100.00
18918;BME280;9591;52.742;13.650;2023-01-29T08:04:22;101970.44;;;0.58;100.00
18918;BME280;9591;52.742;13.650;2023-01-29T08:07:09;101981.03;;;0.64;100.00
18918;BME280;9591;52.742;13.650;2023-01-29T08:09:56;101969.69;;;0.62;100.00
18918;BME280;9591;52.742;13.650;2023-01-29T08:12:43;101978.66;;;0.72;100.00
18918;BME280;9591;52.742;13.650;2023-01-29T08:15:30;101993.66;;;0.81;100.00
18918;BME280;9591;52.742;13.650;2023-01-29T08:18:18;102002.50;;;0.86;100.00
18918;BME280;9591;52.742;13.650;2023-01-29T08:21:08;101995.25;;;0.76;100.00
18918;BME280;9591;52.742;13.650;2023-01-29T08:23:59;101980.75;;;0.85;100.00
18918;BME280;9591;52.742;13.650;2023-01-29T08:26:51;101985.59;;;0.72;100.00
18918;BME280;9591;52.742;13.650;2023-01-29T08:29:37;101980.41;;;0.73;100.00
18918;BME280;9591;52.742;13.650;2023-01-29T08:32:24;101978.78;;;0.77;100.00
18918;BME280;9591;52.742;13.650;2023-01-29T08:35:11;101972.63;;;0.75;100.00
18918;BME280;9591;52.742;13.650;2023-01-29T08:37:59;101981.16;;;0.69;100.00
18918;BME280;9591;52.742;13.650;2023-01-29T08:40:48;101982.97;;;0.72;100.00
18918;BME280;9591;52.742;13.650;2023-01-29T08:43:35;101973.47;;;0.74;100.00
18918;BME280;9591;52.742;13.650;2023-01-29T08:46:26;101952.53;;;0.71;100.00
18918;BME280;9591;52.742;13.650;2023-01-29T08:49:15;101969.44;;;0.85;100.00
18918;BME280;9591;52.742;13.650;2023-01-29T08:52:05;101957.38;;;0.90;100.00
18918;BME280;9591;52.742;13.650;2023-01-29T08:54:56;101952.94;;;0.87;100.00
18918;BME280;9591;52.742;13.650;2023-01-29T08:57:45;101960.97;;;0.95;100.00
18918;BME280;9591;52.742;13.650;2023-01-29T09:00:32;101957.94;;;0.78;100.00
18918;BME280;9591;52.742;13.650;2023-01-29T09:03:20;101964.72;;;1.05;100.00
18918;BME280;9591;52.742;13.650;2023-01-29T09:06:12;101972.38;;;0.98;100.00
18918;BME280;9591;52.742;13.650;2023-01-29T09:08:59;101962.78;;;0.97;100.00
18918;BME280;9591;52.742;13.650;2023-01-29T09:11:46;101964.63;;;1.02;100.00
18918;BME280;9591;52.742;13.650;2023-01-29T09:14:35;101980.41;;;1.06;100.00
18918;BME280;9591;52.742;13.650;2023-01-29T09:17:26;101977.97;;;1.12;100.00
18918;BME280;9591;52.742;13.650;2023-01-29T09:20:19;101978.69;;;1.07;100.00
18918;BME280;9591;52.742;13.650;2023-01-29T09:23:14;101971.25;;;1.22;100.00
18918;BME280;9591;52.742;13.650;2023-01-29T09:26:01;101968.56;;;1.19;100.00
18918;BME280;9591;52.742;13.650;2023-01-29T09:28:48;101965.16;;;1.21;100.00
18918;BME280;9591;52.742;13.650;2023-01-29T09:31:36;101941.78;;;1.26;100.00
18918;BME280;9591;52.742;13.650;2023-01-29T09:34:25;101940.91;;;1.25;100.00
18918;BME280;9591;52.742;13.650;2023-01-29T09:37:12;101941.81;;;1.27;100.00
18918;BME280;9591;52.742;13.650;2023-01-29T09:40:02;101945.78;;;1.48;100.00
18918;BME280;9591;52.742;13.650;2023-01-29T09:42:54;101941.19;;;1.38;100.00
18918;BME280;9591;52.742;13.650;2023-01-29T09:45:51;101946.53;;;1.42;100.00
18918;BME280;9591;52.742;13.650;2023-01-29T09:48:41;101947.38;;;1.41;100.00
18918;BME280;9591;52.742;13.650;2023-01-29T09:51:31;101951.13;;;1.52;100.00
18918;BME280;9591;52.742;13.650;2023-01-29T09:54:23;101857.63;;;1.00;100.00
18918;BME280;9591;52.742;13.650;2023-01-29T09:57:14;101936.34;;;1.53;100.00
18918;BME280;9591;52.742;13.650;2023-01-29T10:00:05;101941.72;;;1.59;100.00
18918;BME280;9591;52.742;13.650;2023-01-29T10:03:06;101932.34;;;1.67;100.00
18918;BME280;9591;52.742;13.650;2023-01-29T10:06:06;101921.81;;;1.64;100.00
18918;BME280;9591;52.742;13.650;2023-01-29T10:09:20;101922.44;;;1.54;100.00
18918;BME280;9591;52.742;13.650;2023-01-29T10:12:26;101926.25;;;1.68;100.00
18918;BME280;9591;52.742;13.650;2023-01-29T10:15:24;101930.34;;;1.57;100.00
18918;BME280;9591;52.742;13.650;2023-01-29T10:18:37;101928.19;;;1.78;100.00
18918;BME280;9591;52.742;13.650;2023-01-29T10:21:40;101921.81;;;1.64;100.00
18918;BME280;9591;52.742;13.650;2023-01-29T10:24:35;101930.72;;;1.74;100.00
18918;BME280;9591;52.742;13.650;2023-01-29T10:27:29;101929.78;;;1.70;100.00
18918;BME280;9591;52.742;13.650;2023-01-29T10:30:22;101926.56;;;1.83;100.00
18918;BME280;9591;52.742;13.650;2023-01-29T10:33:17;101905.59;;;1.80;100.00
18918;BME280;9591;52.742;13.650;2023-01-29T10:36:08;101911.56;;;1.73;100.00
18918;BME280;9591;52.742;13.650;2023-01-29T10:39:00;101900.25;;;1.74;100.00
18918;BME280;9591;52.742;13.650;2023-01-29T10:41:56;101906.63;;;1.87;100.00
18918;BME280;9591;52.742;13.650;2023-01-29T10:45:12;101888.53;;;1.96;100.00
18918;BME280;9591;52.742;13.650;2023-01-29T10:48:21;101872.94;;;2.01;100.00
18918;BME280;9591;52.742;13.650;2023-01-29T10:51:21;101871.19;;;2.00;100.00
18918;BME280;9591;52.742;13.650;2023-01-29T10:54:29;101864.56;;;2.17;100.00
18918;BME280;9591;52.742;13.650;2023-01-29T10:57:37;101854.09;;;2.15;100.00
18918;BME280;9591;52.742;13.650;2023-01-29T11:00:27;101858.69;;;2.27;100.00
18918;BME280;9591;52.742;13.650;2023-01-29T11:03:17;101850.94;;;2.32;100.00
18918;BME280;9591;52.742;13.650;2023-01-29T11:06:16;101852.84;;;2.40;100.00
18918;BME280;9591;52.742;13.650;2023-01-29T11:09:08;101844.34;;;2.52;100.00
18918;BME280;9591;52.742;13.650;2023-01-29T11:12:00;101851.28;;;2.50;100.00
18918;BME280;9591;52.742;13.650;2023-01-29T11:14:50;101841.69;;;2.50;100.00
18918;BME280;9591;52.742;13.650;2023-01-29T11:17:59;101834.00;;;2.61;100.00
18918;BME280;9591;52.742;13.650;2023-01-29T11:20:59;101830.56;;;2.63;100.00
18918;BME280;9591;52.742;13.650;2023-01-29T11:23:45;101830.50;;;2.57;100.00
18918;BME280;9591;52.742;13.650;2023-01-29T11:26:36;101826.75;;;2.43;100.00
18918;BME280;9591;52.742;13.650;2023-01-29T11:29:33;101762.72;;;2.21;100.00
18918;BME280;9591;52.742;13.650;2023-01-29T11:32:27;101820.88;;;2.56;100.00
18918;BME280;9591;52.742;13.650;2023-01-29T11:35:21;101821.09;;;2.70;100.00
18918;BME280;9591;52.742;13.650;2023-01-29T11:38:17;101815.84;;;2.70;100.00
18918;BME280;9591;52.742;13.650;2023-01-29T11:41:07;101818.63;;;2.79;100.00
18918;BME280;9591;52.742;13.650;2023-01-29T11:44:01;101810.00;;;2.85;100.00
18918;BME280;9591;52.742;13.650;2023-01-29T11:46:50;101807.47;;;2.89;100.00
18918;BME280;9591;52.742;13.650;2023-01-29T11:49:37;101809.31;;;2.96;100.00
18918;BME280;9591;52.742;13.650;2023-01-29T11:52:33;101775.84;;;2.76;100.00
18918;BME280;9591;52.742;13.650;2023-01-29T11:55:22;101799.94;;;3.09;100.00
18918;BME280;9591;52.742;13.650;2023-01-29T11:58:13;101792.03;;;3.08;100.00
18918;BME280;9591;52.742;13.650;2023-01-29T12:01:02;101773.75;;;3.09;100.00
18918;BME280;9591;52.742;13.650;2023-01-29T12:03:52;101766.84;;;3.14;100.00
18918;BME280;9591;52.742;13.650;2023-01-29T12:06:41;101758.19;;;3.18;100.00
18918;BME280;9591;52.742;13.650;2023-01-29T12:09:30;101747.63;;;3.12;100.00
18918;BME280;9591;52.742;13.650;2023-01-29T12:12:26;101744.16;;;3.15;100.00
18918;BME280;9591;52.742;13.650;2023-01-29T12:15:20;101756.47;;;3.20;100.00
18918;BME280;9591;52.742;13.650;2023-01-29T12:18:13;101751.19;;;3.17;100.00
18918;BME280;9591;52.742;13.650;2023-01-29T12:21:04;101746.19;;;3.36;100.00
18918;BME280;9591;52.742;13.650;2023-01-29T12:23:59;101739.09;;;3.27;100.00
18918;BME280;9591;52.742;13.650;2023-01-29T12:26:50;101739.28;;;3.41;100.00
18918;BME280;9591;52.742;13.650;2023-01-29T12:29:44;101725.28;;;3.37;100.00
18918;BME280;9591;52.742;13.650;2023-01-29T12:32:38;101726.00;;;3.27;100.00
18918;BME280;9591;52.742;13.650;2023-01-29T12:35:32;101724.25;;;3.26;100.00
18918;BME280;9591;52.742;13.650;2023-01-29T12:38:23;101726.81;;;3.21;100.00
18918;BME280;9591;52.742;13.650;2023-01-29T12:41:23;101722.47;;;3.23;100.00
18918;BME280;9591;52.742;13.650;2023-01-29T12:44:16;101725.84;;;3.16;100.00
18918;BME280;9591;52.742;13.650;2023-01-29T12:47:07;101710.09;;;3.13;100.00
18918;BME280;9591;52.742;13.650;2023-01-29T12:50:03;101732.91;;;3.20;100.00
18918;BME280;9591;52.742;13.650;2023-01-29T12:52:52;101734.69;;;3.23;100.00
18918;BME280;9591;52.742;13.650;2023-01-29T12:55:44;101728.47;;;3.16;100.00
18918;BME280;9591;52.742;13.650;2023-01-29T12:58:34;101724.00;;;3.09;100.00
18918;BME280;9591;52.742;13.650;2023-01-29T13:01:27;101723.25;;;3.16;100.00
18918;BME280;9591;52.742;13.650;2023-01-29T13:04:19;101727.00;;;3.37;100.00
18918;BME280;9591;52.742;13.650;2023-01-29T13:07:13;101718.22;;;3.32;100.00
18918;BME280;9591;52.742;13.650;2023-01-29T13:10:06;101711.19;;;3.27;100.00
18918;BME280;9591;52.742;13.650;2023-01-29T13:12:58;101709.50;;;3.33;100.00
18918;BME280;9591;52.742;13.650;2023-01-29T13:15:47;101713.81;;;3.29;100.00
18918;BME280;9591;52.742;13.650;2023-01-29T13:18:40;101707.63;;;3.24;100.00
18918;BME280;9591;52.742;13.650;2023-01-29T13:21:33;101699.75;;;3.21;100.00
18918;BME280;9591;52.742;13.650;2023-01-29T13:24:24;101697.34;;;3.38;100.00
18918;BME280;9591;52.742;13.650;2023-01-29T13:27:19;101698.13;;;3.32;100.00
18918;BME280;9591;52.742;13.650;2023-01-29T13:30:23;101696.44;;;3.36;100.00
18918;BME280;9591;52.742;13.650;2023-01-29T13:33:19;101697.13;;;3.21;100.00
18918;BME280;9591;52.742;13.650;2023-01-29T13:36:13;101684.72;;;3.08;100.00
18918;BME280;9591;52.742;13.650;2023-01-29T13:39:04;101682.13;;;3.09;100.00
18918;BME280;9591;52.742;13.650;2023-01-29T13:41:54;101659.19;;;2.90;100.00
18918;BME280;9591;52.742;13.650;2023-01-29T13:44:46;101679.41;;;3.02;100.00
18918;BME280;9591;52.742;13.650;2023-01-29T13:47:37;101682.28;;;3.20;100.00
18918;BME280;9591;52.742;13.650;2023-01-29T13:50:31;101678.72;;;3.15;100.00
18918;BME280;9591;52.742;13.650;2023-01-29T13:53:22;101676.00;;;3.09;100.00
18918;BME280;9591;52.742;13.650;2023-01-29T13:56:28;101669.69;;;2.93;100.00
18918;BME280;9591;52.742;13.650;2023-01-29T13:59:23;101672.34;;;2.96;100.00
18918;BME280;9591;52.742;13.650;2023-01-29T14:02:21;101666.25;;;2.97;100.00
18918;BME280;9591;52.742;13.650;2023-01-29T14:05:41;101658.34;;;2.92;100.00
18918;BME280;9591;52.742;13.650;2023-01-29T14:08:38;101654.94;;;2.98;100.00
18918;BME280;9591;52.742;13.650;2023-01-29T14:11:34;101659.25;;;2.94;100.00
18918;BME280;9591;52.742;13.650;2023-01-29T14:14:58;101645.28;;;2.94;100.00
18918;BME280;9591;52.742;13.650;2023-01-29T14:17:55;101604.03;;;2.76;100.00
18918;BME280;9591;52.742;13.650;2023-01-29T14:21:00;101645.28;;;2.95;100.00
18918;BME280;9591;52.742;13.650;2023-01-29T14:23:48;101517.00;;;2.21;100.00
18918;BME280;9591;52.742;13.650;2023-01-29T14:26:41;101595.06;;;2.56;100.00
18918;BME280;9591;52.742;13.650;2023-01-29T14:29:34;101648.78;;;2.94;100.00
18918;BME280;9591;52.742;13.650;2023-01-29T14:32:25;101645.25;;;2.91;100.00
18918;BME280;9591;52.742;13.650;2023-01-29T14:35:17;101637.25;;;2.82;100.00
18918;BME280;9591;52.742;13.650;2023-01-29T14:38:06;101639.84;;;2.79;100.00
18918;BME280;9591;52.742;13.650;2023-01-29T14:41:04;101635.41;;;2.75;100.00
18918;BME280;9591;52.742;13.650;2023-01-29T14:47:17;101629.94;;;2.55;100.00
18918;BME280;9591;52.742;13.650;2023-01-29T14:53:32;101623.53;;;2.36;100.00
18918;BME280;9591;52.742;13.650;2023-01-29T14:56:31;101623.31;;;2.22;100.00
18918;BME280;9591;52.742;13.650;2023-01-29T14:59:21;101617.34;;;2.29;100.00
18918;BME280;9591;52.742;13.650;2023-01-29T15:02:14;101612.75;;;2.16;100.00
18918;BME280;9591;52.742;13.650;2023-01-29T15:05:06;101612.63;;;2.09;100.00
18918;BME280;9591;52.742;13.650;2023-01-29T15:07:55;101610.94;;;2.11;100.00